Time;durP1;ratioP1;P1;durP2;ratioP2;P2;SDS_P1;SDS_P2;PMS_P1;PMS_P2;Temp;Humidity;BMP_temperature;BMP_pressure;BME280_temperature;BME280_humidity;BME280_pressure;Samples;Min_cycle;Max_cycle;Signal;HPM_P1;HPM_P2
2023/09/10 00:00:22;;;;;;;18.50;16.70;;;21.90;99.90;;;;;;5069958;28;20438;-58
2023/09/10 00:02:48;;;;;;;18.30;16.52;;;21.90;99.90;;;;;;5070315;28;20036;-60
2023/09/10 00:05:14;;;;;;;18.23;16.42;;;21.90;99.90;;;;;;5070010;28;20078;-59
2023/09/10 00:07:40;;;;;;;18.70;17.00;;;21.80;99.90;;;;;;5070489;28;20129;-60
2023/09/10 00:10:06;;;;;;;19.15;17.25;;;21.80;99.90;;;;;;5070355;28;20044;-57
2023/09/10 00:12:32;;;;;;;20.05;17.75;;;21.80;99.90;;;;;;5067964;28;20169;-59
2023/09/10 00:14:57;;;;;;;19.77;17.65;;;21.70;99.90;;;;;;5069850;28;20115;-59
2023/09/10 00:17:23;;;;;;;19.48;17.35;;;21.70;99.90;;;;;;5070513;28;20076;-58
2023/09/10 00:19:49;;;;;;;19.65;17.60;;;21.60;99.90;;;;;;5069943;28;20497;-59
2023/09/10 00:22:14;;;;;;;20.10;18.20;;;21.60;99.90;;;;;;5068869;28;20043;-59
2023/09/10 00:24:40;;;;;;;20.58;17.88;;;21.50;99.90;;;;;;5065970;28;20147;-58
2023/09/10 00:27:06;;;;;;;20.05;18.02;;;21.50;99.90;;;;;;5062186;28;20072;-59
2023/09/10 00:29:32;;;;;;;20.95;18.75;;;21.40;99.90;;;;;;5070134;28;20051;-59
2023/09/10 00:31:58;;;;;;;21.65;19.55;;;21.40;99.90;;;;;;5070481;28;20365;-60
2023/09/10 00:34:23;;;;;;;21.85;19.75;;;21.40;99.90;;;;;;5070694;28;20097;-60
2023/09/10 00:36:49;;;;;;;22.33;19.98;;;21.30;99.90;;;;;;5070598;28;20518;-59
2023/09/10 00:39:15;;;;;;;23.73;21.38;;;21.30;99.90;;;;;;5071016;28;20495;-59
2023/09/10 00:41:40;;;;;;;22.73;20.48;;;21.30;99.90;;;;;;5070856;28;20067;-58
2023/09/10 00:44:06;;;;;;;23.10;20.83;;;21.20;99.90;;;;;;5070588;28;20136;-59
2023/09/10 00:46:32;;;;;;;23.13;20.90;;;21.20;99.90;;;;;;5070619;28;20094;-59
2023/09/10 00:48:59;;;;;;;23.60;21.38;;;21.20;99.90;;;;;;5070365;28;20032;-59
2023/09/10 00:51:26;;;;;;;25.95;23.23;;;21.10;99.90;;;;;;5070448;28;20033;-59
2023/09/10 00:53:52;;;;;;;25.02;22.52;;;21.10;99.90;;;;;;5069937;28;20053;-58
2023/09/10 00:56:19;;;;;;;25.17;22.77;;;21.00;99.90;;;;;;5071035;28;20048;-59
2023/09/10 00:58:45;;;;;;;25.45;22.92;;;21.00;99.90;;;;;;5070780;28;20037;-59
2023/09/10 01:01:11;;;;;;;23.95;21.65;;;21.00;99.90;;;;;;5070800;28;20442;-58
2023/09/10 01:03:38;;;;;;;25.00;22.60;;;20.90;99.90;;;;;;5074885;28;20044;-60
2023/09/10 01:06:04;;;;;;;25.70;23.17;;;20.90;99.90;;;;;;5074633;28;20369;-58
2023/09/10 01:08:30;;;;;;;24.30;22.00;;;20.90;99.90;;;;;;5074361;28;20035;-59
2023/09/10 01:11:27;;;;;;;25.48;22.83;;;20.90;99.90;;;;;;5074712;28;20025;-58
2023/09/10 01:14:11;;;;;;;25.05;22.63;;;20.80;99.90;;;;;;5074813;28;20119;-59
2023/09/10 01:17:05;;;;;;;25.73;23.17;;;20.80;99.90;;;;;;5074454;28;20119;-59
2023/09/10 01:20:11;;;;;;;27.17;24.47;;;20.80;99.90;;;;;;5070313;28;20045;-59
2023/09/10 01:23:02;;;;;;;25.55;23.02;;;20.70;99.90;;;;;;5074353;28;20129;-57
2023/09/10 01:25:29;;;;;;;26.65;24.15;;;20.70;99.90;;;;;;5074066;28;20033;-59
2023/09/10 01:27:55;;;;;;;27.50;24.85;;;20.60;99.90;;;;;;5074333;28;20075;-59
2023/09/10 01:30:21;;;;;;;27.77;25.17;;;20.60;99.90;;;;;;5073249;28;20448;-58
2023/09/10 01:33:02;;;;;;;27.63;24.95;;;20.50;99.90;;;;;;5071665;28;20060;-59
2023/09/10 01:35:55;;;;;;;27.15;24.48;;;20.60;99.90;;;;;;5072985;28;20052;-57
2023/09/10 01:38:36;;;;;;;30.05;26.92;;;20.50;99.90;;;;;;5072869;28;20040;-59
2023/09/10 01:41:11;;;;;;;27.58;24.90;;;20.50;99.90;;;;;;5072667;28;20092;-58
2023/09/10 01:43:37;;;;;;;29.70;26.83;;;20.50;99.90;;;;;;5073947;28;20134;-59
2023/09/10 01:46:05;;;;;;;28.70;26.00;;;20.40;99.90;;;;;;5073300;28;20052;-58
2023/09/10 01:48:31;;;;;;;29.92;27.13;;;20.50;99.90;;;;;;5074159;28;20104;-59
2023/09/10 01:50:57;;;;;;;29.23;26.42;;;20.50;99.90;;;;;;5074162;28;20028;-59
2023/09/10 01:53:23;;;;;;;27.98;25.48;;;20.50;99.90;;;;;;5073550;28;20047;-59
2023/09/10 01:55:48;;;;;;;28.35;25.50;;;20.50;99.90;;;;;;5073456;28;20102;-59
2023/09/10 01:58:15;;;;;;;29.30;26.55;;;20.40;99.90;;;;;;5072630;28;20040;-58
2023/09/10 02:00:41;;;;;;;30.92;27.92;;;20.40;99.90;;;;;;5071496;28;20147;-59
2023/09/10 02:03:07;;;;;;;29.08;26.17;;;20.40;99.90;;;;;;5072940;28;20041;-58
2023/09/10 02:05:33;;;;;;;30.52;27.73;;;20.40;99.90;;;;;;5071951;28;20061;-59
2023/09/10 02:07:58;;;;;;;30.58;27.73;;;20.40;99.90;;;;;;5072958;28;20039;-59
2023/09/10 02:10:24;;;;;;;32.58;29.35;;;20.30;99.90;;;;;;5073603;28;20048;-60
2023/09/10 02:12:50;;;;;;;32.45;29.17;;;20.30;99.90;;;;;;5072713;28;20476;-59
2023/09/10 02:15:17;;;;;;;33.33;30.23;;;20.30;99.90;;;;;;5070752;28;20028;-57
2023/09/10 02:17:43;;;;;;;34.97;31.67;;;20.30;99.90;;;;;;5070300;28;20043;-57
2023/09/10 02:20:09;;;;;;;31.08;28.17;;;20.20;99.90;;;;;;5072739;28;20392;-58
2023/09/10 02:22:36;;;;;;;31.55;28.58;;;20.20;99.90;;;;;;5072751;28;20448;-59
2023/09/10 02:25:03;;;;;;;31.77;28.70;;;20.20;99.90;;;;;;5072049;28;20048;-59
2023/09/10 02:27:30;;;;;;;33.97;30.75;;;20.20;99.90;;;;;;5071750;28;20048;-58
2023/09/10 02:29:56;;;;;;;36.58;33.08;;;20.10;99.90;;;;;;5073459;28;20067;-59
2023/09/10 02:32:23;;;;;;;35.97;32.47;;;20.10;99.90;;;;;;5073331;28;20121;-59
2023/09/10 02:34:51;;;;;;;37.13;33.42;;;20.10;99.90;;;;;;5072861;28;20044;-59
2023/09/10 02:37:17;;;;;;;37.22;33.72;;;20.10;99.90;;;;;;5072117;28;20569;-59
2023/09/10 02:39:43;;;;;;;33.60;30.30;;;20.10;99.90;;;;;;5073163;28;20029;-59
2023/09/10 02:42:09;;;;;;;33.28;30.13;;;20.00;99.90;;;;;;5073268;28;20037;-60
2023/09/10 02:44:34;;;;;;;36.58;33.03;;;20.00;99.90;;;;;;5072338;28;20058;-57
2023/09/10 02:47:00;;;;;;;37.50;33.83;;;19.90;99.90;;;;;;5072077;28;20400;-58
2023/09/10 02:49:26;;;;;;;38.90;34.83;;;19.90;99.90;;;;;;5072438;28;20383;-59
2023/09/10 02:51:52;;;;;;;36.78;33.30;;;19.80;99.90;;;;;;5073077;28;20032;-57
2023/09/10 02:54:17;;;;;;;36.50;32.90;;;19.80;99.90;;;;;;5072482;28;20431;-59
2023/09/10 02:56:43;;;;;;;34.13;30.92;;;19.80;99.90;;;;;;5073020;28;20044;-58
2023/09/10 02:59:19;;;;;;;36.05;32.40;;;19.80;99.90;;;;;;5071090;28;20539;-58
2023/09/10 03:01:45;;;;;;;37.60;33.70;;;19.80;99.90;;;;;;5072071;28;20119;-59
2023/09/10 03:04:11;;;;;;;40.00;36.20;;;19.70;99.90;;;;;;5071104;28;20124;-59
2023/09/10 03:06:37;;;;;;;37.35;33.80;;;19.70;99.90;;;;;;5070726;28;20316;-58
2023/09/10 03:09:02;;;;;;;37.13;33.63;;;19.70;99.90;;;;;;5072378;28;20029;-59
2023/09/10 03:11:31;;;;;;;39.45;35.55;;;19.70;99.90;;;;;;5072162;28;20036;-59
2023/09/10 03:13:56;;;;;;;37.13;33.47;;;19.60;99.90;;;;;;5072093;28;20032;-59
2023/09/10 03:16:25;;;;;;;37.47;33.78;;;19.60;99.90;;;;;;5071664;28;20035;-59
2023/09/10 03:18:50;;;;;;;42.70;38.53;;;19.60;99.90;;;;;;5071212;28;20128;-59
2023/09/10 03:21:16;;;;;;;38.83;35.10;;;19.60;99.90;;;;;;5071481;28;20128;-58
2023/09/10 03:23:42;;;;;;;39.55;35.72;;;19.60;99.90;;;;;;5071225;28;20040;-58
2023/09/10 03:26:11;;;;;;;37.08;33.47;;;19.60;99.90;;;;;;5070970;28;20491;-58
2023/09/10 03:28:37;;;;;;;35.92;32.45;;;19.60;99.90;;;;;;5070523;28;20109;-58
2023/09/10 03:31:03;;;;;;;41.88;37.67;;;19.60;99.90;;;;;;5071700;28;20032;-59
2023/09/10 03:33:29;;;;;;;42.17;38.17;;;19.50;99.90;;;;;;5071992;28;20399;-59
2023/09/10 03:35:54;;;;;;;43.28;38.75;;;19.50;99.90;;;;;;5071626;28;20360;-57
2023/09/10 03:38:20;;;;;;;37.13;33.22;;;19.50;99.90;;;;;;5070121;28;20047;-59
2023/09/10 03:40:46;;;;;;;39.20;35.42;;;19.50;99.90;;;;;;5072138;28;20087;-59
2023/09/10 03:43:12;;;;;;;42.25;38.13;;;19.50;99.90;;;;;;5071539;28;20071;-59
2023/09/10 03:45:37;;;;;;;43.20;39.10;;;19.50;99.90;;;;;;5071232;28;20056;-59
2023/09/10 03:48:03;;;;;;;41.47;37.28;;;19.40;99.90;;;;;;5072002;28;21613;-58
2023/09/10 03:50:29;;;;;;;38.53;34.88;;;19.40;99.90;;;;;;5071142;28;20432;-56
2023/09/10 03:52:55;;;;;;;38.33;34.63;;;19.40;99.90;;;;;;5070171;28;20032;-58
2023/09/10 03:55:20;;;;;;;41.97;37.78;;;19.40;99.90;;;;;;5069989;28;20068;-59
2023/09/10 03:57:46;;;;;;;40.33;36.33;;;19.40;99.90;;;;;;5071785;28;20051;-60
2023/09/10 04:00:12;;;;;;;39.22;35.33;;;19.40;99.90;;;;;;5071657;28;20779;-59
2023/09/10 04:02:38;;;;;;;39.90;35.90;;;19.30;99.90;;;;;;5071594;28;20106;-57
2023/09/10 04:05:05;;;;;;;40.20;36.20;;;19.30;99.90;;;;;;5070140;28;20514;-58
2023/09/10 04:07:30;;;;;;;39.38;35.58;;;19.30;99.90;;;;;;5069673;28;20047;-58
2023/09/10 04:09:57;;;;;;;41.97;37.75;;;19.30;99.90;;;;;;5071512;28;20033;-59
2023/09/10 04:12:22;;;;;;;40.42;36.63;;;19.30;99.90;;;;;;5070736;28;20043;-58
2023/09/10 04:14:48;;;;;;;47.33;42.63;;;19.20;99.90;;;;;;5069726;28;20040;-59
2023/09/10 04:17:17;;;;;;;45.00;40.35;;;19.30;99.90;;;;;;5069033;28;20052;-57
2023/09/10 04:19:43;;;;;;;42.40;38.17;;;19.30;99.90;;;;;;5071328;28;20415;-59
2023/09/10 04:22:09;;;;;;;40.33;36.25;;;19.20;99.90;;;;;;5070067;28;20040;-59
2023/09/10 04:24:35;;;;;;;42.63;38.28;;;19.20;99.90;;;;;;5070035;28;20047;-58
2023/09/10 04:27:02;;;;;;;42.60;38.30;;;19.20;99.90;;;;;;5071269;28;20369;-59
2023/09/10 04:29:27;;;;;;;41.95;37.83;;;19.20;99.90;;;;;;5070643;28;20032;-59
2023/09/10 04:31:53;;;;;;;38.90;35.10;;;19.10;99.90;;;;;;5071298;28;20086;-59
2023/09/10 04:34:19;;;;;;;39.40;35.53;;;19.00;99.90;;;;;;5070757;28;20642;-58
2023/09/10 04:36:46;;;;;;;40.33;36.33;;;19.00;99.90;;;;;;5070524;28;20111;-58
2023/09/10 04:39:12;;;;;;;41.92;37.65;;;19.00;99.90;;;;;;5067261;28;20120;-60
2023/09/10 04:41:37;;;;;;;40.75;36.85;;;18.90;99.90;;;;;;5069739;28;20404;-59
2023/09/10 04:44:03;;;;;;;39.95;36.08;;;18.90;99.90;;;;;;5069200;28;20094;-58
2023/09/10 04:46:29;;;;;;;39.15;35.35;;;18.80;99.90;;;;;;5070201;28;20046;-59
2023/09/10 04:48:56;;;;;;;41.45;37.45;;;18.80;99.90;;;;;;5070993;28;20036;-58
2023/09/10 04:51:22;;;;;;;40.83;36.97;;;18.80;99.90;;;;;;5069389;28;20064;-59
2023/09/10 04:53:48;;;;;;;41.47;37.47;;;18.90;99.90;;;;;;5070876;28;20067;-59
2023/09/10 04:56:13;;;;;;;41.90;37.78;;;18.90;99.90;;;;;;5070204;28;20040;-58
2023/09/10 04:58:39;;;;;;;41.78;37.78;;;18.90;99.90;;;;;;5070112;28;20071;-58
2023/09/10 05:01:05;;;;;;;44.25;39.75;;;18.90;99.90;;;;;;5070891;28;20027;-59
2023/09/10 05:03:31;;;;;;;44.85;40.45;;;18.90;99.90;;;;;;5068974;28;20073;-59
2023/09/10 05:06:01;;;;;;;41.45;37.22;;;18.90;99.90;;;;;;5069194;28;20036;-60
2023/09/10 05:08:27;;;;;;;41.08;37.05;;;18.80;99.90;;;;;;5052595;28;20062;-59
2023/09/10 05:10:54;;;;;;;41.65;37.47;;;18.80;99.90;;;;;;5070655;28;20029;-59
2023/09/10 05:13:19;;;;;;;41.08;37.03;;;18.80;99.90;;;;;;5070907;28;20047;-58
2023/09/10 05:15:49;;;;;;;40.53;36.55;;;18.80;99.90;;;;;;5070237;28;20040;-58
2023/09/10 05:18:15;;;;;;;45.20;40.78;;;18.70;99.90;;;;;;5069971;28;20044;-60
2023/09/10 05:20:41;;;;;;;42.53;38.22;;;18.80;99.90;;;;;;5070336;28;20518;-59
2023/09/10 05:23:07;;;;;;;43.63;39.38;;;18.70;99.90;;;;;;5070453;28;20032;-58
2023/09/10 05:25:36;;;;;;;40.90;36.78;;;18.70;99.90;;;;;;5070403;28;20041;-59
2023/09/10 05:28:03;;;;;;;42.28;38.22;;;18.70;99.90;;;;;;5070108;28;20115;-60
2023/09/10 05:30:29;;;;;;;42.33;38.22;;;18.70;99.90;;;;;;5070407;28;20506;-59
2023/09/10 05:32:56;;;;;;;40.72;36.80;;;18.70;99.90;;;;;;5070277;28;20541;-60
2023/09/10 05:35:22;;;;;;;42.42;38.38;;;18.80;99.90;;;;;;5068943;28;20056;-59
2023/09/10 05:37:48;;;;;;;42.15;38.15;;;18.80;99.90;;;;;;5070624;28;20093;-59
2023/09/10 05:40:14;;;;;;;43.75;39.42;;;18.80;99.90;;;;;;5068619;28;20426;-59
2023/09/10 05:42:39;;;;;;;48.70;43.92;;;18.80;99.90;;;;;;5070057;28;20567;-59
2023/09/10 05:45:06;;;;;;;46.17;41.67;;;18.80;99.90;;;;;;5070366;28;20036;-58
2023/09/10 05:47:31;;;;;;;46.15;41.60;;;18.90;99.90;;;;;;5070103;28;20045;-59
2023/09/10 05:49:59;;;;;;;46.40;41.65;;;18.90;99.90;;;;;;5073921;28;20037;-59
2023/09/10 05:52:25;;;;;;;44.60;40.22;;;18.90;99.90;;;;;;5074169;28;20450;-59
2023/09/10 05:54:50;;;;;;;46.10;41.50;;;18.90;99.90;;;;;;5074149;28;20036;-60
2023/09/10 05:57:16;;;;;;;45.53;41.15;;;18.90;99.90;;;;;;5074029;28;20048;-59
2023/09/10 05:59:42;;;;;;;47.33;42.70;;;18.90;99.90;;;;;;5072362;28;20044;-60
2023/09/10 06:02:07;;;;;;;46.78;42.28;;;18.90;99.90;;;;;;5074094;28;20483;-59
2023/09/10 06:04:33;;;;;;;47.15;42.55;;;18.90;99.90;;;;;;5073001;28;20554;-59
2023/09/10 06:07:03;;;;;;;47.13;42.58;;;18.90;99.90;;;;;;5068334;28;20549;-60
2023/09/10 06:09:29;;;;;;;46.20;41.67;;;19.00;99.90;;;;;;5069798;28;20044;-59
2023/09/10 06:11:55;;;;;;;47.83;42.85;;;19.00;99.90;;;;;;5067719;28;20101;-59
2023/09/10 06:14:21;;;;;;;45.25;40.83;;;19.10;99.90;;;;;;5052325;28;20045;-58
2023/09/10 06:16:47;;;;;;;46.72;42.15;;;19.00;99.90;;;;;;5059789;28;20040;-59
2023/09/10 06:19:14;;;;;;;47.00;42.20;;;19.10;99.90;;;;;;5060288;28;20411;-59
2023/09/10 06:21:40;;;;;;;48.38;43.50;;;19.10;99.90;;;;;;5059088;28;20059;-59
2023/09/10 06:24:06;;;;;;;49.20;44.40;;;19.20;99.90;;;;;;5060712;28;20048;-59
2023/09/10 06:26:32;;;;;;;51.85;46.95;;;19.30;99.90;;;;;;5059136;28;20079;-59
2023/09/10 06:28:59;;;;;;;48.03;43.50;;;19.20;99.90;;;;;;5060683;28;20370;-59
2023/09/10 06:31:25;;;;;;;49.03;44.03;;;19.30;99.90;;;;;;5061898;28;20066;-58
2023/09/10 06:33:51;;;;;;;47.22;42.47;;;19.30;99.90;;;;;;5060497;28;20033;-59
2023/09/10 06:36:17;;;;;;;47.70;42.97;;;19.30;99.90;;;;;;5061721;28;20078;-59
2023/09/10 06:38:47;;;;;;;47.25;42.63;;;19.40;99.90;;;;;;5059812;28;20040;-59
2023/09/10 06:41:17;;;;;;;50.53;45.42;;;19.40;99.90;;;;;;5060116;28;20044;-58
2023/09/10 06:43:43;;;;;;;47.58;42.83;;;19.50;99.90;;;;;;5059196;28;20060;-59
2023/09/10 06:46:09;;;;;;;49.38;44.28;;;19.50;99.90;;;;;;5061836;28;20183;-59
2023/09/10 06:48:35;;;;;;;48.03;43.33;;;19.50;99.90;;;;;;5060109;28;21302;-59
2023/09/10 06:51:01;;;;;;;49.47;44.60;;;19.60;99.90;;;;;;5061218;28;20097;-60
2023/09/10 06:53:28;;;;;;;52.80;47.53;;;19.60;99.90;;;;;;5061494;28;20044;-61
2023/09/10 06:55:54;;;;;;;50.80;45.70;;;19.70;99.90;;;;;;5064934;28;20055;-59
2023/09/10 06:58:20;;;;;;;51.88;46.72;;;19.80;99.90;;;;;;5044368;28;20128;-58
2023/09/10 07:00:46;;;;;;;54.63;49.20;;;19.70;99.90;;;;;;5062533;28;20127;-59
2023/09/10 07:03:13;;;;;;;51.72;46.63;;;19.80;99.90;;;;;;5062153;28;20459;-58
2023/09/10 07:05:40;;;;;;;49.90;44.90;;;19.90;99.90;;;;;;5063639;28;20056;-60
2023/09/10 07:08:07;;;;;;;50.15;45.30;;;19.90;99.90;;;;;;5061352;28;20044;-59
2023/09/10 07:10:33;;;;;;;53.35;47.95;;;19.90;99.90;;;;;;5061426;28;20126;-58
2023/09/10 07:13:01;;;;;;;53.67;48.22;;;19.90;99.90;;;;;;5062897;28;20047;-60
2023/09/10 07:15:27;;;;;;;51.95;46.97;;;20.00;99.90;;;;;;5063019;28;20128;-58
2023/09/10 07:17:52;;;;;;;51.53;46.63;;;20.10;99.90;;;;;;5062596;28;20541;-59
2023/09/10 07:20:18;;;;;;;50.88;45.75;;;20.10;99.90;;;;;;5061129;28;20050;-58
2023/09/10 07:22:44;;;;;;;51.55;46.42;;;20.20;99.90;;;;;;5062016;28;20123;-60
2023/09/10 07:25:10;;;;;;;52.38;47.22;;;20.30;99.90;;;;;;5061784;28;20454;-60
2023/09/10 07:27:35;;;;;;;49.72;45.00;;;20.40;99.90;;;;;;5063322;28;20054;-58
2023/09/10 07:30:02;;;;;;;50.75;45.72;;;20.40;99.90;;;;;;5062719;28;20491;-60
2023/09/10 07:32:27;;;;;;;49.08;44.17;;;20.50;99.90;;;;;;5062747;28;20041;-60
2023/09/10 07:34:53;;;;;;;48.92;44.13;;;20.60;99.90;;;;;;5062033;28;20490;-59
2023/09/10 07:37:19;;;;;;;49.53;44.65;;;20.60;99.90;;;;;;5062493;28;20032;-59
2023/09/10 07:39:45;;;;;;;47.72;43.03;;;20.70;99.90;;;;;;5062213;28;20037;-59
2023/09/10 07:42:10;;;;;;;47.05;42.45;;;20.80;99.90;;;;;;5062520;28;20136;-59
2023/09/10 07:44:36;;;;;;;47.95;43.33;;;20.90;99.90;;;;;;5061072;28;20075;-59
2023/09/10 07:47:02;;;;;;;44.60;40.10;;;21.00;99.90;;;;;;5059331;28;20440;-59
2023/09/10 07:49:28;;;;;;;44.05;39.67;;;21.10;99.90;;;;;;5059549;28;20090;-60
2023/09/10 07:51:54;;;;;;;41.10;37.10;;;21.10;99.90;;;;;;5062701;28;20380;-59
2023/09/10 07:54:19;;;;;;;41.45;37.30;;;21.30;99.90;;;;;;5065123;28;20039;-58
2023/09/10 07:56:45;;;;;;;40.97;36.75;;;21.40;99.90;;;;;;5061625;28;20555;-59
2023/09/10 07:59:12;;;;;;;40.30;36.05;;;21.40;99.90;;;;;;5058925;28;20107;-59
2023/09/10 08:01:40;;;;;;;41.13;37.05;;;21.40;99.90;;;;;;5062673;28;20421;-60
2023/09/10 08:04:06;;;;;;;40.63;36.53;;;21.50;99.90;;;;;;5054946;28;20075;-60
2023/09/10 08:06:32;;;;;;;39.03;35.13;;;21.60;99.90;;;;;;5062908;28;20044;-59
2023/09/10 08:08:58;;;;;;;39.92;35.92;;;21.70;99.90;;;;;;5059569;28;20100;-59
2023/09/10 08:11:23;;;;;;;40.38;36.45;;;21.70;99.90;;;;;;5059102;28;20061;-60
2023/09/10 08:13:50;;;;;;;39.65;35.55;;;21.80;99.90;;;;;;5061361;28;20075;-58
2023/09/10 08:16:17;;;;;;;40.15;36.05;;;21.90;99.90;;;;;;5060703;28;20068;-59
2023/09/10 08:18:44;;;;;;;40.05;36.05;;;22.00;99.90;;;;;;5060517;28;20506;-60
2023/09/10 08:21:11;;;;;;;39.92;35.63;;;22.00;99.90;;;;;;5061420;28;20048;-59
2023/09/10 08:23:37;;;;;;;40.30;36.40;;;22.10;99.90;;;;;;5061021;28;20480;-59
2023/09/10 08:26:03;;;;;;;39.00;35.20;;;22.20;99.90;;;;;;5059616;28;20045;-59
2023/09/10 08:28:29;;;;;;;37.50;33.80;;;22.30;99.90;;;;;;5060816;28;20039;-60
2023/09/10 08:30:54;;;;;;;40.50;36.17;;;22.30;99.90;;;;;;5060334;28;20599;-59
2023/09/10 08:33:21;;;;;;;38.72;34.90;;;22.40;99.90;;;;;;5061043;28;20375;-59
2023/09/10 08:35:50;;;;;;;38.60;34.58;;;22.50;99.90;;;;;;5060319;28;20060;-58
2023/09/10 08:38:16;;;;;;;38.35;34.55;;;22.60;99.90;;;;;;5075417;28;20119;-60
2023/09/10 08:41:07;;;;;;;38.90;34.83;;;22.70;99.90;;;;;;5060767;28;20120;-60
2023/09/10 08:43:44;;;;;;;37.47;33.65;;;22.80;99.90;;;;;;5039865;28;20048;-59
2023/09/10 08:46:13;;;;;;;37.88;33.83;;;22.90;99.90;;;;;;5059576;28;20131;-60
2023/09/10 08:48:41;;;;;;;36.53;32.92;;;23.00;99.90;;;;;;5059222;28;20041;-60
2023/09/10 08:51:16;;;;;;;35.92;32.13;;;22.90;99.90;;;;;;5060894;28;20051;-58
2023/09/10 08:53:43;;;;;;;35.33;31.58;;;23.20;99.90;;;;;;5060294;28;20158;-60
2023/09/10 08:56:09;;;;;;;34.50;30.95;;;23.30;99.90;;;;;;5061396;28;20041;-57
2023/09/10 08:58:38;;;;;;;33.10;29.83;;;23.40;99.90;;;;;;5055006;28;20040;-59
2023/09/10 09:01:05;;;;;;;33.58;30.17;;;23.50;99.90;;;;;;5051325;28;20033;-59
2023/09/10 09:03:32;;;;;;;33.70;30.20;;;23.70;99.90;;;;;;5051355;28;20373;-59
2023/09/10 09:06:01;;;;;;;32.35;28.95;;;23.80;99.90;;;;;;5051338;28;20051;-60
2023/09/10 09:08:32;;;;;;;28.70;25.67;;;23.90;99.90;;;;;;5052539;28;20047;-60
2023/09/10 09:11:03;;;;;;;29.92;26.95;;;24.10;99.90;;;;;;5048697;28;20057;-60
2023/09/10 09:13:38;;;;;;;27.90;25.20;;;24.20;99.90;;;;;;5058855;28;20033;-57
2023/09/10 09:16:05;;;;;;;27.38;24.55;;;24.30;99.90;;;;;;5069825;28;20041;-60
2023/09/10 09:18:33;;;;;;;24.35;21.85;;;24.40;99.90;;;;;;5050943;28;20131;-59
2023/09/10 09:21:05;;;;;;;22.67;20.33;;;24.60;99.90;;;;;;5068349;28;20495;-58
2023/09/10 09:23:58;;;;;;;21.40;19.10;;;24.70;99.90;;;;;;5071402;28;20040;-59
2023/09/10 09:26:26;;;;;;;25.20;22.60;;;24.80;99.90;;;;;;5074027;28;20040;-59
2023/09/10 09:28:55;;;;;;;21.30;19.10;;;24.90;99.90;;;;;;5074513;28;20068;-59
2023/09/10 09:31:21;;;;;;;20.58;18.58;;;25.00;99.90;;;;;;5073467;28;20037;-59
2023/09/10 09:33:47;;;;;;;20.20;16.40;;;25.10;99.90;;;;;;5074729;28;20566;-60
2023/09/10 09:36:12;;;;;;;20.35;18.35;;;25.20;99.90;;;;;;5073715;28;20119;-58
2023/09/10 09:38:43;;;;;;;29.20;19.40;;;25.30;99.90;;;;;;5074414;28;20040;-60
2023/09/10 09:41:09;;;;;;;20.23;18.17;;;25.40;99.90;;;;;;5074830;28;20464;-59
2023/09/10 09:43:35;;;;;;;21.17;18.70;;;25.50;99.90;;;;;;5074511;28;20078;-60
2023/09/10 09:46:02;;;;;;;22.05;19.63;;;25.60;99.90;;;;;;5054784;28;20037;-59
2023/09/10 09:48:28;;;;;;;22.35;18.33;;;25.70;99.90;;;;;;5052894;28;20044;-59
2023/09/10 09:50:55;;;;;;;24.13;19.05;;;25.80;99.90;;;;;;5054428;28;20051;-59
2023/09/10 09:53:28;;;;;;;19.33;17.38;;;25.80;99.90;;;;;;5054420;28;20091;-59
2023/09/10 09:56:01;;;;;;;;;;;25.90;99.90;;;;;;5054909;28;20502;-59
2023/09/10 09:58:30;;;;;;;18.38;16.58;;;26.00;99.90;;;;;;5054481;28;19924;-60
2023/09/10 10:01:00;;;;;;;21.30;16.15;;;26.00;99.90;;;;;;5053118;28;20044;-60
2023/09/10 10:03:28;;;;;;;19.50;17.40;;;26.20;99.90;;;;;;5053394;28;20075;-59
2023/09/10 10:05:54;;;;;;;17.95;15.57;;;26.30;99.90;;;;;;5053579;28;20045;-60
2023/09/10 10:08:25;;;;;;;17.77;15.98;;;26.30;99.90;;;;;;5051064;28;20045;-59
2023/09/10 10:10:51;;;;;;;17.30;15.35;;;26.40;99.90;;;;;;5053872;28;20029;-58
2023/09/10 10:13:22;;;;;;;17.27;15.15;;;26.40;99.90;;;;;;5053401;28;20036;-59
2023/09/10 10:15:51;;;;;;;17.85;15.10;;;26.40;99.90;;;;;;5053337;28;20029;-60
2023/09/10 10:18:19;;;;;;;17.60;14.55;;;26.50;99.90;;;;;;5052103;28;20112;-59
2023/09/10 10:20:47;;;;;;;15.48;13.88;;;26.60;99.90;;;;;;5053447;28;20047;-64
2023/09/10 10:23:17;;;;;;;17.20;13.48;;;26.70;99.90;;;;;;5053179;28;20553;-59
2023/09/10 10:25:44;;;;;;;16.65;12.70;;;26.80;99.90;;;;;;5053315;28;20045;-60
2023/09/10 10:28:12;;;;;;;16.63;13.32;;;26.90;99.90;;;;;;5053240;28;20392;-60
2023/09/10 10:30:50;;;;;;;18.13;14.02;;;27.00;99.90;;;;;;5053539;28;20485;-60
2023/09/10 10:33:21;;;;;;;19.70;13.20;;;27.00;99.90;;;;;;5052493;28;20075;-60
2023/09/10 10:36:13;;;;;;;16.45;12.27;;;27.10;99.90;;;;;;5051656;28;20228;-59
2023/09/10 10:38:44;;;;;;;15.85;11.90;;;27.20;99.90;;;;;;5050612;28;20044;-59
2023/09/10 10:41:17;;;;;;;17.08;11.68;;;27.30;99.90;;;;;;5052527;28;20036;-59
2023/09/10 10:44:01;;;;;;;14.93;11.15;;;27.40;99.90;;;;;;5053279;28;20384;-61
2023/09/10 10:46:29;;;;;;;17.67;11.27;;;27.50;99.90;;;;;;5071182;28;20044;-59
2023/09/10 10:48:58;;;;;;;15.57;10.05;;;27.50;99.90;;;;;;5072569;28;20040;-60
2023/09/10 10:51:24;;;;;;;14.73;10.07;;;27.60;99.90;;;;;;5072542;28;20040;-60
2023/09/10 10:53:51;;;;;;;15.68;10.65;;;27.70;99.90;;;;;;5072644;28;20605;-59
2023/09/10 10:56:17;;;;;;;18.23;10.15;;;27.80;99.90;;;;;;5070869;28;20037;-58
2023/09/10 10:58:44;;;;;;;19.48;10.13;;;27.80;99.90;;;;;;5072841;28;20127;-60
2023/09/10 11:01:13;;;;;;;15.13;9.60;;;28.00;99.90;;;;;;5072855;28;20497;-59
2023/09/10 11:03:39;;;;;;;17.27;9.10;;;28.00;99.90;;;;;;5070907;28;20075;-59
2023/09/10 11:06:06;;;;;;;13.13;9.07;;;28.10;99.90;;;;;;5071828;28;20036;-58
2023/09/10 11:08:48;;;;;;;14.85;8.93;;;28.10;99.90;;;;;;5072561;28;20040;-58
2023/09/10 11:11:32;;;;;;;16.13;8.90;;;28.30;99.90;;;;;;5071819;28;20491;-57
2023/09/10 11:14:03;;;;;;;15.30;8.15;;;28.30;99.90;;;;;;5071752;28;20085;-57
2023/09/10 11:16:32;;;;;;;17.55;8.05;;;28.50;99.90;;;;;;5071963;28;20033;-58
2023/09/10 11:18:59;;;;;;;24.85;8.23;;;28.60;99.90;;;;;;5072525;28;20365;-57
2023/09/10 11:21:54;;;;;;;16.08;7.43;;;28.80;99.90;;;;;;5072248;28;20044;-58
2023/09/10 11:24:19;;;;;;;19.80;7.78;;;28.90;99.90;;;;;;5068587;28;20052;-58
2023/09/10 11:26:46;;;;;;;14.82;7.40;;;29.00;99.90;;;;;;5072066;28;20047;-57
2023/09/10 11:29:19;;;;;;;15.98;7.45;;;29.10;99.90;;;;;;5071351;28;20036;-57
2023/09/10 11:31:48;;;;;;;;;;;29.20;99.90;;;;;;5072540;28;20043;-58
2023/09/10 11:34:17;;;;;;;18.02;6.97;;;29.20;99.90;;;;;;5071886;28;19962;-58
2023/09/10 11:36:43;;;;;;;18.52;6.85;;;29.30;99.90;;;;;;5072299;28;20499;-59
2023/09/10 11:39:09;;;;;;;21.40;6.78;;;29.40;99.90;;;;;;5071748;28;20554;-58
2023/09/10 11:41:35;;;;;;;22.73;7.10;;;29.60;99.90;;;;;;5071907;28;20158;-58
2023/09/10 11:44:01;;;;;;;18.10;7.60;;;29.70;99.90;;;;;;5070930;28;20496;-58
2023/09/10 11:46:27;;;;;;;17.00;7.03;;;29.80;99.90;;;;;;5071194;28;20057;-59
2023/09/10 11:48:53;;;;;;;22.75;6.93;;;29.90;99.90;;;;;;5071476;28;20040;-58
2023/09/10 11:51:19;;;;;;;20.65;6.80;;;30.00;99.90;;;;;;5072009;28;20036;-57
2023/09/10 11:53:44;;;;;;;18.33;7.13;;;30.20;99.90;;;;;;5071594;28;20071;-59
2023/09/10 11:56:11;;;;;;;18.95;6.10;;;30.30;99.90;;;;;;5070107;28;20036;-56
2023/09/10 11:58:37;;;;;;;19.15;6.30;;;30.40;99.90;;;;;;5071691;28;20059;-58
2023/09/10 12:01:04;;;;;;;25.15;6.35;;;30.50;99.90;;;;;;5071520;28;20033;-58
2023/09/10 12:03:33;;;;;;;19.58;6.18;;;30.60;99.90;;;;;;5071647;28;20434;-58
2023/09/10 12:05:59;;;;;;;18.48;6.78;;;30.70;99.90;;;;;;5071433;28;20052;-58
2023/09/10 12:08:24;;;;;;;21.52;6.68;;;30.70;99.90;;;;;;5071145;28;20047;-56
2023/09/10 12:10:58;;;;;;;19.05;6.28;;;30.80;99.90;;;;;;5071193;28;20392;-57
2023/09/10 12:13:24;;;;;;;23.60;6.47;;;30.90;99.90;;;;;;5071579;28;20040;-57
2023/09/10 12:15:52;;;;;;;17.63;5.95;;;30.90;99.90;;;;;;5071538;28;20115;-57
2023/09/10 12:18:21;;;;;;;18.42;6.65;;;30.90;99.90;;;;;;5070781;28;20028;-58
2023/09/10 12:20:47;;;;;;;20.17;6.43;;;31.00;99.90;;;;;;5069902;28;20063;-59
2023/09/10 12:23:16;;;;;;;24.85;6.40;;;31.10;99.90;;;;;;5071436;28;20061;-57
2023/09/10 12:25:41;;;;;;;24.40;6.70;;;31.20;99.90;;;;;;5069852;28;20036;-58
2023/09/10 12:28:07;;;;;;;24.88;6.47;;;31.20;99.90;;;;;;5071005;28;20043;-59
2023/09/10 12:30:35;;;;;;;29.85;6.72;;;31.20;99.90;;;;;;5071061;28;20064;-58